createdAt,value
2022-10-23T00:01:35.735Z,98629.75
2022-10-23T00:04:07.424Z,98636.16
2022-10-23T00:06:35.800Z,98630.13
2022-10-23T00:09:04.364Z,98632.41
2022-10-23T00:11:32.305Z,98637.16
2022-10-23T00:14:00.572Z,98634.63
2022-10-23T00:16:28.091Z,98633.78
2022-10-23T00:18:55.164Z,98640.00
2022-10-23T00:21:22.641Z,98636.31
2022-10-23T00:23:49.790Z,98643.34
2022-10-23T00:26:18.833Z,98645.22
2022-10-23T00:28:47.289Z,98642.69
2022-10-23T00:31:14.442Z,98634.03
2022-10-23T00:33:42.332Z,98632.56
2022-10-23T00:36:10.992Z,98630.06
2022-10-23T00:38:38.502Z,98625.94
2022-10-23T00:41:06.794Z,98624.28
2022-10-23T00:43:34.738Z,98629.84
2022-10-23T00:46:01.837Z,98628.19
2022-10-23T00:48:29.426Z,98620.13
2022-10-23T00:50:56.720Z,98625.50
2022-10-23T00:53:24.915Z,98621.16
2022-10-23T00:55:53.930Z,98618.66
2022-10-23T00:58:21.211Z,98627.75
2022-10-23T01:00:52.168Z,98623.41
2022-10-23T01:03:21.566Z,98619.91
2022-10-23T01:05:52.032Z,98617.22
2022-10-23T01:08:19.147Z,98611.00
2022-10-23T01:10:53.998Z,98615.56
2022-10-23T01:13:26.565Z,98609.53
2022-10-23T01:15:55.263Z,98616.56
2022-10-23T01:18:44.880Z,98614.91
2022-10-23T01:21:21.309Z,98609.97
2022-10-23T01:23:48.586Z,98598.56
2022-10-23T01:26:16.129Z,98597.94
2022-10-23T01:28:43.659Z,98594.41
2022-10-23T01:31:14.339Z,98594.00
2022-10-23T01:33:44.989Z,98588.63
2022-10-23T01:36:13.561Z,98591.72
2022-10-23T01:38:41.590Z,98590.69
2022-10-23T01:41:28.757Z,98584.09
2022-10-23T01:44:16.257Z,98586.97
2022-10-23T01:46:45.211Z,98577.25
2022-10-23T01:49:14.015Z,98581.34
2022-10-23T01:51:44.130Z,98574.13
2022-10-23T01:54:13.504Z,98574.34
2022-10-23T01:56:44.082Z,98574.53
2022-10-23T01:59:14.595Z,98571.66
2022-10-23T02:01:44.111Z,98571.66
2022-10-23T02:04:13.957Z,98570.84
2022-10-23T02:06:41.288Z,98559.63
2022-10-23T02:09:08.639Z,98562.13
2022-10-23T02:11:39.845Z,98557.97
2022-10-23T02:14:11.840Z,98553.25
2022-10-23T02:16:50.791Z,98566.69
2022-10-23T02:19:21.674Z,98555.94
2022-10-23T02:21:48.868Z,98556.31
2022-10-23T02:24:18.769Z,98554.88
2022-10-23T02:26:52.805Z,98549.72
2022-10-23T02:29:25.610Z,98545.16
2022-10-23T02:31:52.786Z,98552.41
2022-10-23T02:34:20.037Z,98548.69
2022-10-23T02:36:47.120Z,98553.41
2022-10-23T02:39:14.323Z,98556.72
2022-10-23T02:41:47.153Z,98542.84
2022-10-23T02:44:32.633Z,98534.75
2022-10-23T02:47:15.658Z,98531.03
2022-10-23T02:49:57.395Z,98532.25
2022-10-23T02:52:29.980Z,98540.09
2022-10-23T02:58:05.036Z,98528.34
2022-10-23T03:00:33.845Z,98541.75
2022-10-23T03:03:13.513Z,98535.91
2022-10-23T03:05:41.531Z,98540.88
2022-10-23T03:08:09.735Z,98546.81
2022-10-23T03:10:36.898Z,98546.41
2022-10-23T03:13:04.154Z,98545.19
2022-10-23T03:15:38.932Z,98546.19
2022-10-23T03:18:07.546Z,98548.25
2022-10-23T03:20:34.784Z,98550.09
2022-10-23T03:23:02.024Z,98546.59
2022-10-23T03:25:29.178Z,98542.66
2022-10-23T03:27:58.163Z,98546.34
2022-10-23T03:30:25.310Z,98547.56
2022-10-23T03:32:54.991Z,98528.97
2022-10-23T03:35:22.041Z,98526.28
2022-10-23T03:37:49.129Z,98529.44
2022-10-23T03:40:16.537Z,98517.22
2022-10-23T03:42:44.946Z,98512.69
2022-10-23T03:45:16.462Z,98520.94
2022-10-23T03:47:43.882Z,98527.97
2022-10-23T03:50:11.933Z,98532.94
2022-10-23T03:52:39.489Z,98530.25
2022-10-23T03:55:07.115Z,98524.28
2022-10-23T03:57:34.214Z,98521.78
2022-10-23T04:00:01.465Z,98528.00
2022-10-23T04:02:32.708Z,98520.75
2022-10-23T04:04:59.853Z,98509.13
2022-10-23T04:07:28.945Z,98514.09
2022-10-23T04:09:56.352Z,98512.16
2022-10-23T04:12:24.229Z,98519.38
2022-10-23T04:14:52.123Z,98514.44
2022-10-23T04:17:19.391Z,98517.31
2022-10-23T04:19:49.716Z,98511.28
2022-10-23T04:22:16.754Z,98508.84
2022-10-23T04:24:46.634Z,98512.13
2022-10-23T04:27:18.148Z,98518.59
2022-10-23T04:29:45.246Z,98520.44
2022-10-23T04:32:13.195Z,98513.81
2022-10-23T04:34:40.362Z,98517.16
2022-10-23T04:37:07.651Z,98509.28
2022-10-23T04:39:34.776Z,98516.31
2022-10-23T04:42:01.865Z,98518.81
2022-10-23T04:44:28.910Z,98514.28
2022-10-23T04:46:55.963Z,98512.44
2022-10-23T04:49:24.165Z,98518.16
2022-10-23T04:52:11.236Z,98508.06
2022-10-23T04:54:58.591Z,98513.22
2022-10-23T04:57:32.410Z,98518.78
2022-10-23T05:00:01.956Z,98524.31
2022-10-23T05:02:35.627Z,98513.78
2022-10-23T05:05:03.161Z,98515.03
2022-10-23T05:07:33.515Z,98517.44
2022-10-23T05:10:14.408Z,98513.50
2022-10-23T05:12:56.647Z,98509.56
2022-10-23T05:15:23.848Z,98510.97
2022-10-23T05:17:52.732Z,98514.50
2022-10-23T05:20:21.517Z,98512.38
2022-10-23T05:22:53.059Z,98507.84
2022-10-23T05:25:24.118Z,98511.16
2022-10-23T05:27:59.127Z,98508.66
2022-10-23T05:30:26.500Z,98518.38
2022-10-23T05:32:54.217Z,98513.66
2022-10-23T05:35:24.400Z,98508.44
2022-10-23T05:37:53.453Z,98512.31
2022-10-23T05:40:24.050Z,98510.25
2022-10-23T05:42:56.641Z,98501.31
2022-10-23T05:45:38.532Z,98497.63
2022-10-23T05:48:34.275Z,98496.09
2022-10-23T05:51:22.467Z,98489.91
2022-10-23T05:54:02.058Z,98502.75
2022-10-23T05:56:43.455Z,98504.81
2022-10-23T05:59:30.263Z,98506.91
2022-10-23T06:02:00.774Z,98515.59
2022-10-23T06:04:46.268Z,98504.88
2022-10-23T06:07:31.184Z,98505.25
2022-10-23T06:10:01.987Z,98507.75
2022-10-23T06:12:31.122Z,98512.28
2022-10-23T06:14:58.477Z,98515.75
2022-10-23T06:17:36.084Z,98504.19
2022-10-23T06:20:03.587Z,98507.69
2022-10-23T06:22:35.550Z,98509.94
2022-10-23T06:25:17.177Z,98502.97
2022-10-23T06:27:44.344Z,98506.91
2022-10-23T06:30:12.041Z,98511.03
2022-10-23T06:32:39.111Z,98505.66
2022-10-23T06:35:12.289Z,98507.09
2022-10-23T06:37:39.557Z,98509.78
2022-10-23T06:40:12.580Z,98515.78
2022-10-23T06:42:59.953Z,98509.16
2022-10-23T06:45:50.008Z,98507.31
2022-10-23T06:48:37.189Z,98508.19
2022-10-23T06:51:11.232Z,98510.09
2022-10-23T06:53:44.607Z,98514.03
2022-10-23T06:56:35.193Z,98518.25
2022-10-23T06:59:07.668Z,98521.66
2022-10-23T07:01:35.067Z,98523.69
2022-10-23T07:04:02.330Z,98534.13
2022-10-23T07:06:29.478Z,98541.66
2022-10-23T07:08:56.753Z,98538.84
2022-10-23T07:11:42.626Z,98538.28
2022-10-23T07:14:09.698Z,98535.19
2022-10-23T07:16:36.867Z,98539.78
2022-10-23T07:19:04.103Z,98540.84
2022-10-23T07:21:53.688Z,98542.28
2022-10-23T07:24:31.894Z,98544.38
2022-10-23T07:27:00.927Z,98545.22
2022-10-23T07:29:29.939Z,98546.50
2022-10-23T07:31:58.109Z,98540.97
2022-10-23T07:34:37.292Z,98538.03
2022-10-23T07:37:18.159Z,98543.72
2022-10-23T07:39:45.739Z,98548.91
2022-10-23T07:42:12.837Z,98561.53
2022-10-23T07:44:41.476Z,98566.09
2022-10-23T07:47:09.650Z,98560.50
2022-10-23T07:49:39.355Z,98563.19
2022-10-23T07:52:06.487Z,98562.38
2022-10-23T07:54:53.565Z,98551.81
2022-10-23T07:57:21.331Z,98561.34
2022-10-23T07:59:58.484Z,98557.00
2022-10-23T08:02:25.639Z,98550.34
2022-10-23T08:04:53.251Z,98551.63
2022-10-23T08:07:32.878Z,98566.28
2022-10-23T08:10:00.530Z,98571.44
2022-10-23T08:12:29.306Z,98564.81
2022-10-23T08:14:56.880Z,98574.34
2022-10-23T08:17:28.321Z,98583.00
2022-10-23T08:20:05.977Z,98580.53
2022-10-23T08:22:39.581Z,98577.63
2022-10-23T08:25:07.079Z,98582.56
2022-10-23T08:27:34.269Z,98589.16
2022-10-23T08:30:01.491Z,98577.19
2022-10-23T08:32:30.469Z,98571.34
2022-10-23T08:34:59.567Z,98574.19
2022-10-23T08:37:29.858Z,98565.63
2022-10-23T08:39:56.903Z,98568.78
2022-10-23T08:42:37.277Z,98571.66
2022-10-23T08:45:14.354Z,98564.25
2022-10-23T08:47:44.686Z,98551.97
2022-10-23T08:50:19.477Z,98549.94
2022-10-23T08:53:12.909Z,98546.38
2022-10-23T08:55:43.218Z,98542.00
2022-10-23T08:58:16.054Z,98537.22
2022-10-23T09:00:43.551Z,98546.78
2022-10-23T09:03:12.167Z,98552.50
2022-10-23T09:05:52.431Z,98551.97
2022-10-23T09:08:33.730Z,98548.03
2022-10-23T09:11:07.424Z,98544.47
2022-10-23T09:13:34.483Z,98545.75
2022-10-23T09:16:10.191Z,98550.91
2022-10-23T09:18:37.982Z,98535.84
2022-10-23T09:21:08.627Z,98525.34
2022-10-23T09:23:36.073Z,98534.19
2022-10-23T09:26:07.778Z,98538.91
2022-10-23T09:28:37.779Z,98547.75
2022-10-23T09:31:08.958Z,98534.91
2022-10-23T09:33:37.159Z,98536.78
2022-10-23T09:36:05.787Z,98542.09
2022-10-23T09:38:37.778Z,98532.44
2022-10-23T09:41:09.762Z,98523.66
2022-10-23T09:43:36.892Z,98530.47
2022-10-23T09:46:06.380Z,98533.06
2022-10-23T09:48:36.162Z,98528.94
2022-10-23T09:51:04.620Z,98534.56
2022-10-23T09:53:37.093Z,98529.31
2022-10-23T09:56:07.949Z,98533.81
2022-10-23T09:58:37.102Z,98540.34
2022-10-23T10:01:04.598Z,98536.59
2022-10-23T10:03:48.522Z,98548.25
2022-10-23T10:06:21.375Z,98543.22
2022-10-23T10:08:56.545Z,98536.25
2022-10-23T10:11:29.805Z,98532.03
2022-10-23T10:14:03.522Z,98516.53
2022-10-23T10:17:04.555Z,98517.91
2022-10-23T10:19:34.583Z,98513.41
2022-10-23T10:22:16.792Z,98522.94
2022-10-23T10:24:50.732Z,98526.78
2022-10-23T10:27:23.728Z,98526.16
2022-10-23T10:30:02.114Z,98523.19
2022-10-23T10:32:35.833Z,98519.16
2022-10-23T10:35:07.205Z,98514.81
2022-10-23T10:37:44.930Z,98511.94
2022-10-23T10:40:26.034Z,98512.47
2022-10-23T10:43:01.166Z,98514.69
2022-10-23T10:45:33.683Z,98509.03
2022-10-23T10:48:36.175Z,98508.09
2022-10-23T10:51:18.134Z,98500.44
2022-10-23T10:53:50.154Z,98503.56
2022-10-23T10:58:35.647Z,98540.66
2022-10-23T11:01:06.074Z,98575.81
2022-10-23T11:03:40.291Z,98591.13
2022-10-23T11:06:12.953Z,98600.91
2022-10-23T11:08:56.075Z,98596.75
2022-10-23T11:11:32.905Z,98606.00
2022-10-23T11:14:00.194Z,98593.69
2022-10-23T11:16:32.478Z,98598.81
2022-10-23T11:19:19.758Z,98597.59
2022-10-23T11:21:58.981Z,98580.47
2022-10-23T11:24:28.905Z,98583.03
2022-10-23T11:27:02.113Z,98565.63
2022-10-23T11:29:29.153Z,98564.25
2022-10-23T11:32:14.198Z,98566.38
2022-10-23T11:34:51.840Z,98548.50
2022-10-23T11:37:19.622Z,98531.22
2022-10-23T11:40:13.507Z,98525.41
2022-10-23T11:42:40.901Z,98524.28
2022-10-23T11:45:26.888Z,98523.00
2022-10-23T11:48:04.669Z,98516.59
2022-10-23T11:50:50.053Z,98502.94
2022-10-23T11:53:46.211Z,98496.22
2022-10-23T11:56:13.281Z,98497.44
2022-10-23T11:58:45.666Z,98494.63
2022-10-23T12:01:31.531Z,98486.63
2022-10-23T12:04:13.781Z,98471.22
2022-10-23T12:06:43.897Z,98458.63
2022-10-23T12:09:29.502Z,98456.16
2022-10-23T12:12:05.734Z,98456.44
2022-10-23T12:14:32.872Z,98445.34
2022-10-23T12:17:00.123Z,98437.81
2022-10-23T12:19:28.657Z,98435.25
2022-10-23T12:22:00.761Z,98436.44
2022-10-23T12:24:53.623Z,98424.31
2022-10-23T12:27:26.385Z,98416.69
2022-10-23T12:30:02.445Z,98429.44
2022-10-23T12:32:44.880Z,98423.22
2022-10-23T12:35:18.228Z,98417.69
2022-10-23T12:37:52.462Z,98409.41
2022-10-23T12:40:19.601Z,98394.38
2022-10-23T12:42:51.585Z,98380.00
2022-10-23T12:45:20.491Z,98371.06
2022-10-23T12:47:48.563Z,98369.31
2022-10-23T12:50:20.393Z,98350.72
2022-10-23T12:52:54.990Z,98334.34
2022-10-23T12:55:23.169Z,98330.94
2022-10-23T12:57:50.726Z,98324.81
2022-10-23T13:00:19.532Z,98325.72
2022-10-23T13:02:47.064Z,98314.34
2022-10-23T13:05:17.080Z,98297.28
2022-10-23T13:07:46.390Z,98296.44
2022-10-23T13:10:17.471Z,98295.88
2022-10-23T13:12:58.473Z,98288.72
2022-10-23T13:15:26.773Z,98283.03
2022-10-23T13:17:53.846Z,98276.47
2022-10-23T13:20:29.072Z,98271.28
2022-10-23T13:23:01.325Z,98264.22
2022-10-23T13:25:28.451Z,98257.53
2022-10-23T13:28:12.082Z,98263.78
2022-10-23T13:30:42.648Z,98258.91
2022-10-23T13:33:21.715Z,98249.16
2022-10-23T13:35:58.655Z,98253.41
2022-10-23T13:38:33.414Z,98246.94
2022-10-23T13:41:01.320Z,98244.22
2022-10-23T13:43:30.656Z,98247.88
2022-10-23T13:45:58.467Z,98250.34
2022-10-23T13:48:26.113Z,98247.72
2022-10-23T13:50:53.600Z,98242.81
2022-10-23T13:53:20.781Z,98241.16
2022-10-23T13:55:52.487Z,98241.16
2022-10-23T13:58:21.905Z,98238.69
2022-10-23T14:00:49.565Z,98239.75
2022-10-23T14:03:17.379Z,98223.66
2022-10-23T14:05:44.417Z,98240.94
2022-10-23T14:08:11.645Z,98240.47
2022-10-23T14:10:38.763Z,98240.38
2022-10-23T14:13:06.176Z,98232.91
2022-10-23T14:15:33.356Z,98232.25
2022-10-23T14:18:04.574Z,98228.81
2022-10-23T14:20:34.466Z,98224.13
2022-10-23T14:23:01.483Z,98232.69
2022-10-23T14:25:28.589Z,98232.47
2022-10-23T14:30:27.598Z,98223.75
2022-10-23T14:32:54.639Z,98220.22
2022-10-23T14:35:21.729Z,98211.50
2022-10-23T14:37:48.784Z,98208.00
2022-10-23T14:40:15.983Z,98207.66
2022-10-23T14:42:43.186Z,98211.19
2022-10-23T14:45:10.459Z,98203.28
2022-10-23T14:47:37.550Z,98202.47
2022-10-23T14:50:04.848Z,98210.34
2022-10-23T14:52:31.791Z,98204.47
2022-10-23T14:54:58.901Z,98195.75
2022-10-23T14:57:26.026Z,98203.06
2022-10-23T14:59:53.072Z,98204.47
2022-10-23T15:02:20.177Z,98195.88
2022-10-23T15:04:47.245Z,98199.63
2022-10-23T15:07:14.273Z,98202.81
2022-10-23T15:09:41.306Z,98199.53
2022-10-23T15:12:08.499Z,98190.50
2022-10-23T15:14:35.606Z,98189.91
2022-10-23T15:17:03.739Z,98191.44
2022-10-23T15:19:30.893Z,98182.72
2022-10-23T15:21:58.027Z,98184.03
2022-10-23T15:24:26.568Z,98179.09
2022-10-23T15:26:53.667Z,98181.22
2022-10-23T15:29:21.054Z,98182.50
2022-10-23T15:31:51.900Z,98174.88
2022-10-23T15:34:20.813Z,98175.84
2022-10-23T15:36:48.580Z,98174.41
2022-10-23T15:39:17.494Z,98177.00
2022-10-23T15:41:45.097Z,98168.53
2022-10-23T15:44:13.831Z,98176.88
2022-10-23T15:46:40.999Z,98161.38
2022-10-23T15:49:08.635Z,98172.19
2022-10-23T15:51:36.916Z,98174.28
2022-10-23T15:54:05.369Z,98169.59
2022-10-23T15:56:32.735Z,98170.06
2022-10-23T15:59:00.367Z,98178.66
2022-10-23T16:01:27.698Z,98167.25
2022-10-23T16:03:54.802Z,98173.50
2022-10-23T16:06:22.087Z,98181.22
2022-10-23T16:08:49.391Z,98163.03
2022-10-23T16:11:18.668Z,98177.38
2022-10-23T16:13:45.957Z,98174.88
2022-10-23T16:16:13.203Z,98181.94
2022-10-23T16:18:40.763Z,98177.59
2022-10-23T16:21:08.300Z,98176.41
2022-10-23T16:23:35.443Z,98186.63
2022-10-23T16:26:04.058Z,98184.75
2022-10-23T16:28:31.783Z,98173.34
2022-10-23T16:30:59.094Z,98180.84
2022-10-23T16:33:26.649Z,98175.72
2022-10-23T16:35:53.774Z,98175.34
2022-10-23T16:38:23.238Z,98176.63
2022-10-23T16:40:51.234Z,98171.47
2022-10-23T16:43:38.631Z,98184.16
2022-10-23T16:46:25.012Z,98184.84
2022-10-23T16:48:52.438Z,98183.66
2022-10-23T16:51:21.193Z,98197.16
2022-10-23T16:53:48.592Z,98200.91
2022-10-23T16:56:17.216Z,98190.56
2022-10-23T16:58:44.717Z,98185.16
2022-10-23T17:01:13.699Z,98184.38
2022-10-23T17:03:42.210Z,98182.94
2022-10-23T17:06:11.391Z,98193.16
2022-10-23T17:08:39.165Z,98205.00
2022-10-23T17:11:16.656Z,98201.47
2022-10-23T17:13:45.545Z,98197.16
2022-10-23T17:16:18.519Z,98193.63
2022-10-23T17:18:45.904Z,98202.78
2022-10-23T17:21:14.060Z,98204.66
2022-10-23T17:23:41.226Z,98203.19
2022-10-23T17:26:09.380Z,98203.19
2022-10-23T17:28:41.630Z,98199.91
2022-10-23T17:31:22.584Z,98193.94
2022-10-23T17:33:51.487Z,98194.16
2022-10-23T17:36:20.055Z,98201.66
2022-10-23T17:38:47.209Z,98201.88
2022-10-23T17:41:15.682Z,98198.59
2022-10-23T17:43:43.480Z,98203.41
2022-10-23T17:46:11.342Z,98217.34
2022-10-23T17:48:39.543Z,98220.03
2022-10-23T17:51:08.088Z,98225.69
2022-10-23T17:53:36.890Z,98218.88
2022-10-23T17:56:05.050Z,98220.97
2022-10-23T17:58:32.700Z,98223.06
2022-10-23T18:01:06.992Z,98223.88
2022-10-23T18:03:34.399Z,98235.16
2022-10-23T18:06:11.908Z,98243.47
2022-10-23T18:08:39.983Z,98225.19
2022-10-23T18:11:07.414Z,98220.22
2022-10-23T18:13:35.886Z,98237.25
2022-10-23T18:16:03.373Z,98246.78
2022-10-23T18:18:30.584Z,98241.38
2022-10-23T18:21:01.539Z,98252.75
2022-10-23T18:23:29.156Z,98240.34
2022-10-23T18:25:57.365Z,98246.31
2022-10-23T18:28:24.801Z,98243.88
2022-10-23T18:30:54.634Z,98255.00
2022-10-23T18:33:24.052Z,98249.63
2022-10-23T18:35:51.144Z,98247.75
2022-10-23T18:38:18.187Z,98240.91
2022-10-23T18:40:45.309Z,98208.50
2022-10-23T18:43:15.092Z,98199.38
2022-10-23T18:45:47.112Z,98188.56
2022-10-23T18:48:14.182Z,98191.50
2022-10-23T18:50:41.410Z,98183.66
2022-10-23T18:53:08.488Z,98180.94
2022-10-23T18:55:35.583Z,98174.47
2022-10-23T18:58:02.740Z,98182.00
2022-10-23T19:00:29.859Z,98184.69
2022-10-23T19:02:57.023Z,98177.66
2022-10-23T19:05:24.501Z,98177.66
2022-10-23T19:07:51.860Z,98185.53
2022-10-23T19:10:19.827Z,98191.97
2022-10-23T19:12:47.111Z,98195.72
2022-10-23T19:15:14.914Z,98199.69
2022-10-23T19:17:41.990Z,98187.25
2022-10-23T19:20:10.945Z,98202.38
2022-10-23T19:22:41.014Z,98204.50
2022-10-23T19:25:11.255Z,98199.34
2022-10-23T19:27:39.643Z,98209.09
2022-10-23T19:30:13.431Z,98220.72
2022-10-23T19:32:41.290Z,98222.31
2022-10-23T19:35:09.139Z,98229.59
2022-10-23T19:37:36.383Z,98224.44
2022-10-23T19:40:06.627Z,98227.38
2022-10-23T19:42:34.197Z,98235.47
2022-10-23T19:45:01.345Z,98237.34
2022-10-23T19:47:28.488Z,98246.50
2022-10-23T19:49:55.566Z,98256.00
2022-10-23T19:52:23.316Z,98259.75
2022-10-23T19:54:50.484Z,98260.59
2022-10-23T19:57:19.288Z,98272.22
2022-10-23T19:59:52.475Z,98275.94
2022-10-23T20:02:20.262Z,98279.69
2022-10-23T20:04:47.523Z,98284.88
2022-10-23T20:07:14.604Z,98282.19
2022-10-23T20:09:41.746Z,98280.88
2022-10-23T20:12:08.811Z,98285.00
2022-10-23T20:14:35.852Z,98290.78
2022-10-23T20:17:03.006Z,98294.06
2022-10-23T20:19:30.105Z,98304.66
2022-10-23T20:21:57.217Z,98302.16
2022-10-23T20:24:24.298Z,98310.75
2022-10-23T20:26:53.410Z,98320.03
2022-10-23T20:29:20.820Z,98329.34
2022-10-23T20:31:48.310Z,98325.94
2022-10-23T20:34:15.402Z,98327.59
2022-10-23T20:36:46.542Z,98336.06
2022-10-23T20:39:16.211Z,98331.47
2022-10-23T20:41:44.988Z,98328.19
2022-10-23T20:44:14.337Z,98330.91
2022-10-23T20:46:41.851Z,98338.38
2022-10-23T20:49:09.300Z,98334.66
2022-10-23T20:51:36.376Z,98335.81
2022-10-23T20:54:03.772Z,98348.66
2022-10-23T20:56:35.111Z,98342.66
2022-10-23T20:59:06.288Z,98342.06
2022-10-23T21:01:34.177Z,98344.97
2022-10-23T21:04:01.982Z,98350.38
2022-10-23T21:06:41.018Z,98348.28
2022-10-23T21:09:18.087Z,98335.75
2022-10-23T21:11:45.392Z,98346.09
2022-10-23T21:14:12.451Z,98352.56
2022-10-23T21:16:44.591Z,98354.44
2022-10-23T21:19:13.846Z,98343.63
2022-10-23T21:21:40.972Z,98350.69
2022-10-23T21:24:09.432Z,98361.81
2022-10-23T21:26:36.693Z,98361.25
2022-10-23T21:29:18.036Z,98361.97
2022-10-23T21:31:45.849Z,98353.88
2022-10-23T21:34:12.913Z,98356.97
2022-10-23T21:36:54.076Z,98356.97
2022-10-23T21:39:28.514Z,98367.91
2022-10-23T21:41:55.631Z,98375.91
2022-10-23T21:44:22.663Z,98381.31
2022-10-23T21:46:49.720Z,98386.72
2022-10-23T21:49:16.817Z,98379.66
2022-10-23T21:51:44.102Z,98373.69
2022-10-23T21:54:12.193Z,98378.69
2022-10-23T21:56:42.079Z,98383.88
2022-10-23T21:59:12.816Z,98391.16
2022-10-23T22:01:41.291Z,98407.38
2022-10-23T22:04:09.785Z,98434.31
2022-10-23T22:06:37.484Z,98436.25
2022-10-23T22:09:05.085Z,98434.63
2022-10-23T22:11:32.446Z,98430.28
2022-10-23T22:14:00.069Z,98427.56
2022-10-23T22:16:27.201Z,98435.84
2022-10-23T22:18:54.305Z,98449.13
2022-10-23T22:21:23.216Z,98440.06
2022-10-23T22:23:50.950Z,98443.34
2022-10-23T22:26:30.995Z,98454.16
2022-10-23T22:29:00.835Z,98452.19
2022-10-23T22:31:29.798Z,98452.41
2022-10-23T22:33:57.681Z,98456.56
2022-10-23T22:36:25.131Z,98452.81
2022-10-23T22:38:52.342Z,98438.69
2022-10-23T22:41:19.682Z,98430.44
2022-10-23T22:43:46.839Z,98427.88
2022-10-23T22:46:17.989Z,98431.84
2022-10-23T22:48:45.847Z,98429.63
2022-10-23T22:51:14.292Z,98445.00
2022-10-23T22:53:41.572Z,98463.34
2022-10-23T22:56:09.503Z,98457.47
2022-10-23T22:58:36.580Z,98461.34
2022-10-23T23:01:06.331Z,98471.44
2022-10-23T23:03:35.152Z,98466.25
2022-10-23T23:06:03.787Z,98464.84
2022-10-23T23:08:30.792Z,98450.25
2022-10-23T23:10:58.110Z,98455.56
2022-10-23T23:13:25.667Z,98463.34
2022-10-23T23:15:52.908Z,98457.47
2022-10-23T23:18:20.058Z,98468.50
2022-10-23T23:20:47.294Z,98474.59
2022-10-23T23:23:15.115Z,98443.22
2022-10-23T23:25:45.943Z,98433.81
2022-10-23T23:28:17.271Z,98446.06
2022-10-23T23:30:47.438Z,98456.28
2022-10-23T23:33:15.458Z,98443.81
2022-10-23T23:35:43.896Z,98436.75
2022-10-23T23:38:11.858Z,98455.44
2022-10-23T23:40:38.997Z,98453.44
2022-10-23T23:43:06.447Z,98441.78
2022-10-23T23:45:33.587Z,98429.94
2022-10-23T23:48:00.666Z,98425.34
2022-10-23T23:50:28.092Z,98424.75
2022-10-23T23:52:55.141Z,98432.84
2022-10-23T23:55:22.307Z,98416.03
2022-10-23T23:57:49.521Z,98455.53
